Jijel, Algeria
Current Conditions -  °F | °C
As of 1:00 PM on Thursday 30 Oct 2014 (Local Time) from DAAV Reporting Station
Scattered Clouds Scattered Clouds  
Wind Chill: 75°   Ceiling: Unl
Heat Index: 75°   Visibility: 6mi
Dew Point: 43°   Wind: 13mph
Humidity: 31%   Direction: 360°N
Pressure: 30.15"   Gusts: NA
Location:  36.82°N, 5.77°E
Report Text: DAAV 301200Z 36011KT 9999 SCT020 24/06 Q1021
Loading
Personal Weather Stations






























Interactive Weather Map
Tropical Storm Tracking
New forecast layout! Learn more

10-Day Weather Forecast

Advertisements
Track Severe Weather on mobile